sensor_id;sensor_type;location;lat;lon;timestamp;temperature;humidity
34099;DHT22;20374;49.474;10.944;2022-09-14T00:00:45;17.20;99.90
34099;DHT22;20374;49.474;10.944;2022-09-14T00:03:13;17.10;99.90
34099;DHT22;20374;49.474;10.944;2022-09-14T00:05:39;17.10;99.90
34099;DHT22;20374;49.474;10.944;2022-09-14T00:08:04;17.10;99.90
34099;DHT22;20374;49.474;10.944;2022-09-14T00:10:30;17.10;99.90
34099;DHT22;20374;49.474;10.944;2022-09-14T00:12:56;17.10;99.90
34099;DHT22;20374;49.474;10.944;2022-09-14T00:15:22;17.10;99.90
34099;DHT22;20374;49.474;10.944;2022-09-14T00:17:48;17.00;99.90
34099;DHT22;20374;49.474;10.944;2022-09-14T00:20:14;17.00;99.90
34099;DHT22;20374;49.474;10.944;2022-09-14T00:22:40;17.10;99.90
34099;DHT22;20374;49.474;10.944;2022-09-14T00:25:06;17.00;99.90
34099;DHT22;20374;49.474;10.944;2022-09-14T00:27:32;17.00;99.90
34099;DHT22;20374;49.474;10.944;2022-09-14T00:29:58;17.00;99.90
34099;DHT22;20374;49.474;10.944;2022-09-14T00:32:24;17.00;99.90
34099;DHT22;20374;49.474;10.944;2022-09-14T00:34:50;17.00;99.90
34099;DHT22;20374;49.474;10.944;2022-09-14T00:37:15;17.00;99.90
34099;DHT22;20374;49.474;10.944;2022-09-14T00:39:41;17.00;99.90
34099;DHT22;20374;49.474;10.944;2022-09-14T00:42:13;16.90;99.90
34099;DHT22;20374;49.474;10.944;2022-09-14T00:47:05;16.80;99.90
34099;DHT22;20374;49.474;10.944;2022-09-14T00:49:39;16.80;99.90
34099;DHT22;20374;49.474;10.944;2022-09-14T00:52:27;16.80;99.90
34099;DHT22;20374;49.474;10.944;2022-09-14T00:54:56;16.80;99.90
34099;DHT22;20374;49.474;10.944;2022-09-14T00:57:25;16.70;99.90
34099;DHT22;20374;49.474;10.944;2022-09-14T00:59:52;16.70;99.90
34099;DHT22;20374;49.474;10.944;2022-09-14T01:02:20;16.70;99.90
34099;DHT22;20374;49.474;10.944;2022-09-14T01:04:47;16.70;99.90
34099;DHT22;20374;49.474;10.944;2022-09-14T01:20:33;16.70;99.90
34099;DHT22;20374;49.474;10.944;2022-09-14T01:23:12;16.70;99.90
34099;DHT22;20374;49.474;10.944;2022-09-14T01:29:00;16.70;99.90
34099;DHT22;20374;49.474;10.944;2022-09-14T01:37:08;16.70;99.90
34099;DHT22;20374;49.474;10.944;2022-09-14T01:39:41;16.70;99.90
34099;DHT22;20374;49.474;10.944;2022-09-14T01:42:10;16.70;99.90
34099;DHT22;20374;49.474;10.944;2022-09-14T01:44:41;16.70;99.90
34099;DHT22;20374;49.474;10.944;2022-09-14T01:47:17;16.70;99.90
34099;DHT22;20374;49.474;10.944;2022-09-14T01:49:49;16.70;99.90
34099;DHT22;20374;49.474;10.944;2022-09-14T01:52:26;16.80;99.90
34099;DHT22;20374;49.474;10.944;2022-09-14T01:55:17;16.70;99.90
34099;DHT22;20374;49.474;10.944;2022-09-14T01:57:52;16.70;99.90
34099;DHT22;20374;49.474;10.944;2022-09-14T02:00:21;16.70;99.90
34099;DHT22;20374;49.474;10.944;2022-09-14T02:03:10;16.70;99.90
34099;DHT22;20374;49.474;10.944;2022-09-14T02:05:41;16.70;99.90
34099;DHT22;20374;49.474;10.944;2022-09-14T02:08:09;16.70;99.90
34099;DHT22;20374;49.474;10.944;2022-09-14T02:10:35;16.70;99.90
34099;DHT22;20374;49.474;10.944;2022-09-14T02:13:01;16.70;99.90
34099;DHT22;20374;49.474;10.944;2022-09-14T02:15:27;16.70;99.90
34099;DHT22;20374;49.474;10.944;2022-09-14T02:17:53;16.70;99.90
34099;DHT22;20374;49.474;10.944;2022-09-14T02:20:39;16.70;99.90
34099;DHT22;20374;49.474;10.944;2022-09-14T02:23:06;16.70;99.90
34099;DHT22;20374;49.474;10.944;2022-09-14T02:25:33;16.70;99.90
34099;DHT22;20374;49.474;10.944;2022-09-14T02:28:01;16.70;99.90
34099;DHT22;20374;49.474;10.944;2022-09-14T02:30:34;16.70;99.90
34099;DHT22;20374;49.474;10.944;2022-09-14T02:36:01;16.60;99.90
34099;DHT22;20374;49.474;10.944;2022-09-14T02:38:39;16.60;99.90
34099;DHT22;20374;49.474;10.944;2022-09-14T02:41:36;16.60;99.90
34099;DHT22;20374;49.474;10.944;2022-09-14T02:44:34;16.60;99.90
34099;DHT22;20374;49.474;10.944;2022-09-14T02:47:16;16.60;99.90
34099;DHT22;20374;49.474;10.944;2022-09-14T02:50:05;16.60;99.90
34099;DHT22;20374;49.474;10.944;2022-09-14T02:52:41;16.60;99.90
34099;DHT22;20374;49.474;10.944;2022-09-14T02:55:13;16.60;99.90
34099;DHT22;20374;49.474;10.944;2022-09-14T02:58:05;16.50;99.90
34099;DHT22;20374;49.474;10.944;2022-09-14T03:00:35;16.50;99.90
34099;DHT22;20374;49.474;10.944;2022-09-14T03:03:02;16.50;99.90
34099;DHT22;20374;49.474;10.944;2022-09-14T03:05:29;16.50;99.90
34099;DHT22;20374;49.474;10.944;2022-09-14T03:07:55;16.50;99.90
34099;DHT22;20374;49.474;10.944;2022-09-14T03:10:20;16.50;99.90
34099;DHT22;20374;49.474;10.944;2022-09-14T03:12:47;16.50;99.90
34099;DHT22;20374;49.474;10.944;2022-09-14T03:15:13;16.50;99.90
34099;DHT22;20374;49.474;10.944;2022-09-14T03:17:38;16.40;99.90
34099;DHT22;20374;49.474;10.944;2022-09-14T03:20:05;16.40;99.90
34099;DHT22;20374;49.474;10.944;2022-09-14T03:22:31;16.40;99.90
34099;DHT22;20374;49.474;10.944;2022-09-14T03:24:58;16.40;99.90
34099;DHT22;20374;49.474;10.944;2022-09-14T03:27:23;16.50;99.90
34099;DHT22;20374;49.474;10.944;2022-09-14T03:29:49;16.50;99.90
34099;DHT22;20374;49.474;10.944;2022-09-14T03:32:15;16.50;99.90
34099;DHT22;20374;49.474;10.944;2022-09-14T03:34:41;16.50;99.90
34099;DHT22;20374;49.474;10.944;2022-09-14T03:37:07;16.50;99.90
34099;DHT22;20374;49.474;10.944;2022-09-14T03:39:33;16.50;99.90
34099;DHT22;20374;49.474;10.944;2022-09-14T03:41:58;16.50;99.90
34099;DHT22;20374;49.474;10.944;2022-09-14T03:44:24;16.60;99.90
34099;DHT22;20374;49.474;10.944;2022-09-14T03:46:50;16.60;99.90
34099;DHT22;20374;49.474;10.944;2022-09-14T03:49:16;16.60;99.90
34099;DHT22;20374;49.474;10.944;2022-09-14T03:51:42;16.60;99.90
34099;DHT22;20374;49.474;10.944;2022-09-14T03:54:08;16.50;99.90
34099;DHT22;20374;49.474;10.944;2022-09-14T03:56:34;16.50;99.90
34099;DHT22;20374;49.474;10.944;2022-09-14T03:58:59;16.50;99.90
34099;DHT22;20374;49.474;10.944;2022-09-14T04:01:25;16.50;99.90
34099;DHT22;20374;49.474;10.944;2022-09-14T04:03:51;16.60;99.90
34099;DHT22;20374;49.474;10.944;2022-09-14T04:06:18;16.60;99.90
34099;DHT22;20374;49.474;10.944;2022-09-14T04:08:45;16.60;99.90
34099;DHT22;20374;49.474;10.944;2022-09-14T04:11:19;16.50;99.90
34099;DHT22;20374;49.474;10.944;2022-09-14T04:13:46;16.50;99.90
34099;DHT22;20374;49.474;10.944;2022-09-14T04:16:13;16.50;99.90
34099;DHT22;20374;49.474;10.944;2022-09-14T04:18:39;16.40;99.90
34099;DHT22;20374;49.474;10.944;2022-09-14T04:21:18;16.50;99.90
34099;DHT22;20374;49.474;10.944;2022-09-14T04:23:44;16.40;99.90
34099;DHT22;20374;49.474;10.944;2022-09-14T04:26:13;16.40;99.90
34099;DHT22;20374;49.474;10.944;2022-09-14T04:28:39;16.50;99.90
34099;DHT22;20374;49.474;10.944;2022-09-14T04:31:05;16.40;99.90
34099;DHT22;20374;49.474;10.944;2022-09-14T04:33:33;16.30;99.90
34099;DHT22;20374;49.474;10.944;2022-09-14T04:36:06;16.30;99.90
34099;DHT22;20374;49.474;10.944;2022-09-14T04:38:33;16.30;99.90
34099;DHT22;20374;49.474;10.944;2022-09-14T04:41:03;16.30;99.90
34099;DHT22;20374;49.474;10.944;2022-09-14T04:43:30;16.30;99.90
34099;DHT22;20374;49.474;10.944;2022-09-14T04:46:05;16.40;99.90
34099;DHT22;20374;49.474;10.944;2022-09-14T04:48:33;16.40;99.90
34099;DHT22;20374;49.474;10.944;2022-09-14T04:51:04;16.40;99.90
34099;DHT22;20374;49.474;10.944;2022-09-14T04:53:33;16.30;99.90
34099;DHT22;20374;49.474;10.944;2022-09-14T04:56:04;16.30;99.90
34099;DHT22;20374;49.474;10.944;2022-09-14T04:58:31;16.30;99.90
34099;DHT22;20374;49.474;10.944;2022-09-14T05:01:05;16.30;99.90
34099;DHT22;20374;49.474;10.944;2022-09-14T05:03:33;16.30;99.90
34099;DHT22;20374;49.474;10.944;2022-09-14T05:06:04;16.30;99.90
34099;DHT22;20374;49.474;10.944;2022-09-14T05:08:30;16.40;99.90
34099;DHT22;20374;49.474;10.944;2022-09-14T05:10:57;16.40;99.90
34099;DHT22;20374;49.474;10.944;2022-09-14T05:13:23;16.40;99.90
34099;DHT22;20374;49.474;10.944;2022-09-14T05:15:49;16.40;99.90
34099;DHT22;20374;49.474;10.944;2022-09-14T05:18:16;16.40;99.90
34099;DHT22;20374;49.474;10.944;2022-09-14T05:20:42;16.30;99.90
34099;DHT22;20374;49.474;10.944;2022-09-14T05:23:08;16.40;99.90
34099;DHT22;20374;49.474;10.944;2022-09-14T05:25:34;16.30;99.90
34099;DHT22;20374;49.474;10.944;2022-09-14T05:28:00;16.30;99.90
34099;DHT22;20374;49.474;10.944;2022-09-14T05:30:26;16.40;99.90
34099;DHT22;20374;49.474;10.944;2022-09-14T05:32:52;16.40;99.90
34099;DHT22;20374;49.474;10.944;2022-09-14T05:35:18;16.40;99.90
34099;DHT22;20374;49.474;10.944;2022-09-14T05:37:44;16.30;99.90
34099;DHT22;20374;49.474;10.944;2022-09-14T05:40:10;16.30;99.90
34099;DHT22;20374;49.474;10.944;2022-09-14T05:42:36;16.30;99.90
34099;DHT22;20374;49.474;10.944;2022-09-14T05:45:02;16.30;99.90
34099;DHT22;20374;49.474;10.944;2022-09-14T05:47:28;16.30;99.90
34099;DHT22;20374;49.474;10.944;2022-09-14T05:49:55;16.30;99.90
34099;DHT22;20374;49.474;10.944;2022-09-14T05:52:21;16.30;99.90
34099;DHT22;20374;49.474;10.944;2022-09-14T05:54:47;16.40;99.90
34099;DHT22;20374;49.474;10.944;2022-09-14T05:57:13;16.40;99.90
34099;DHT22;20374;49.474;10.944;2022-09-14T05:59:39;16.30;99.90
34099;DHT22;20374;49.474;10.944;2022-09-14T06:02:04;16.30;99.90
34099;DHT22;20374;49.474;10.944;2022-09-14T06:04:30;16.30;99.90
34099;DHT22;20374;49.474;10.944;2022-09-14T06:06:56;16.40;99.90
34099;DHT22;20374;49.474;10.944;2022-09-14T06:09:22;16.30;99.90
34099;DHT22;20374;49.474;10.944;2022-09-14T06:11:49;16.30;99.90
34099;DHT22;20374;49.474;10.944;2022-09-14T06:14:15;16.30;99.90
34099;DHT22;20374;49.474;10.944;2022-09-14T06:16:44;16.30;99.90
34099;DHT22;20374;49.474;10.944;2022-09-14T06:19:10;16.30;99.90
34099;DHT22;20374;49.474;10.944;2022-09-14T06:21:39;16.20;99.90
34099;DHT22;20374;49.474;10.944;2022-09-14T06:24:04;16.30;99.90
34099;DHT22;20374;49.474;10.944;2022-09-14T06:26:31;16.20;99.90
34099;DHT22;20374;49.474;10.944;2022-09-14T06:28:57;16.20;99.90
34099;DHT22;20374;49.474;10.944;2022-09-14T06:31:23;16.10;99.90
34099;DHT22;20374;49.474;10.944;2022-09-14T06:33:50;16.10;99.90
34099;DHT22;20374;49.474;10.944;2022-09-14T06:36:22;16.10;99.90
34099;DHT22;20374;49.474;10.944;2022-09-14T06:38:49;16.00;99.90
34099;DHT22;20374;49.474;10.944;2022-09-14T06:41:19;16.10;99.90
34099;DHT22;20374;49.474;10.944;2022-09-14T06:43:45;16.10;99.90
34099;DHT22;20374;49.474;10.944;2022-09-14T06:46:26;16.10;99.90
34099;DHT22;20374;49.474;10.944;2022-09-14T06:49:00;16.10;99.90
34099;DHT22;20374;49.474;10.944;2022-09-14T06:51:38;16.10;99.90
34099;DHT22;20374;49.474;10.944;2022-09-14T06:54:07;16.10;99.90
34099;DHT22;20374;49.474;10.944;2022-09-14T06:56:36;16.10;99.90
34099;DHT22;20374;49.474;10.944;2022-09-14T06:59:05;16.10;99.90
34099;DHT22;20374;49.474;10.944;2022-09-14T07:01:32;16.10;99.90
34099;DHT22;20374;49.474;10.944;2022-09-14T07:03:59;16.10;99.90
34099;DHT22;20374;49.474;10.944;2022-09-14T07:06:30;16.10;99.90
34099;DHT22;20374;49.474;10.944;2022-09-14T07:08:57;16.10;99.90
34099;DHT22;20374;49.474;10.944;2022-09-14T07:11:25;16.00;99.90
34099;DHT22;20374;49.474;10.944;2022-09-14T07:13:53;16.20;99.90
34099;DHT22;20374;49.474;10.944;2022-09-14T07:16:24;16.10;99.90
34099;DHT22;20374;49.474;10.944;2022-09-14T07:19:00;16.20;99.90
34099;DHT22;20374;49.474;10.944;2022-09-14T07:21:27;16.20;99.90
34099;DHT22;20374;49.474;10.944;2022-09-14T07:23:53;16.30;99.90
34099;DHT22;20374;49.474;10.944;2022-09-14T07:26:21;16.30;99.90
34099;DHT22;20374;49.474;10.944;2022-09-14T07:28:55;16.30;99.90
34099;DHT22;20374;49.474;10.944;2022-09-14T07:31:25;16.30;99.90
34099;DHT22;20374;49.474;10.944;2022-09-14T07:33:56;16.20;99.90
34099;DHT22;20374;49.474;10.944;2022-09-14T07:36:23;16.30;99.90
34099;DHT22;20374;49.474;10.944;2022-09-14T07:38:50;16.30;99.90
34099;DHT22;20374;49.474;10.944;2022-09-14T07:41:16;16.30;99.90
34099;DHT22;20374;49.474;10.944;2022-09-14T07:43:42;16.30;99.90
34099;DHT22;20374;49.474;10.944;2022-09-14T07:46:09;16.40;99.90
34099;DHT22;20374;49.474;10.944;2022-09-14T07:48:35;16.40;99.90
34099;DHT22;20374;49.474;10.944;2022-09-14T07:51:06;16.50;99.90
34099;DHT22;20374;49.474;10.944;2022-09-14T07:53:41;16.50;99.90
34099;DHT22;20374;49.474;10.944;2022-09-14T07:56:09;16.50;99.90
34099;DHT22;20374;49.474;10.944;2022-09-14T07:58:35;16.50;99.90
34099;DHT22;20374;49.474;10.944;2022-09-14T08:01:04;16.60;99.90
34099;DHT22;20374;49.474;10.944;2022-09-14T08:03:30;16.60;99.90
34099;DHT22;20374;49.474;10.944;2022-09-14T08:05:58;16.50;99.90
34099;DHT22;20374;49.474;10.944;2022-09-14T08:08:30;16.70;99.90
34099;DHT22;20374;49.474;10.944;2022-09-14T08:11:05;16.70;99.90
34099;DHT22;20374;49.474;10.944;2022-09-14T08:13:33;16.70;99.90
34099;DHT22;20374;49.474;10.944;2022-09-14T08:15:59;16.70;99.90
34099;DHT22;20374;49.474;10.944;2022-09-14T08:18:25;16.60;99.90
34099;DHT22;20374;49.474;10.944;2022-09-14T08:20:52;16.70;99.90
34099;DHT22;20374;49.474;10.944;2022-09-14T08:23:18;16.70;99.90
34099;DHT22;20374;49.474;10.944;2022-09-14T08:25:43;16.70;99.90
34099;DHT22;20374;49.474;10.944;2022-09-14T08:28:09;16.80;99.90
34099;DHT22;20374;49.474;10.944;2022-09-14T08:30:35;16.70;99.90
34099;DHT22;20374;49.474;10.944;2022-09-14T08:33:01;16.80;99.90
34099;DHT22;20374;49.474;10.944;2022-09-14T08:35:26;16.80;99.90
34099;DHT22;20374;49.474;10.944;2022-09-14T08:37:53;16.80;99.90
34099;DHT22;20374;49.474;10.944;2022-09-14T08:40:19;16.80;99.90
34099;DHT22;20374;49.474;10.944;2022-09-14T08:42:45;16.70;99.90
34099;DHT22;20374;49.474;10.944;2022-09-14T08:45:14;16.80;99.90
34099;DHT22;20374;49.474;10.944;2022-09-14T08:47:41;16.90;99.90
34099;DHT22;20374;49.474;10.944;2022-09-14T08:50:18;17.00;99.90
34099;DHT22;20374;49.474;10.944;2022-09-14T08:52:52;16.90;99.90
34099;DHT22;20374;49.474;10.944;2022-09-14T08:55:41;16.90;99.90
34099;DHT22;20374;49.474;10.944;2022-09-14T09:01:00;17.00;99.90
34099;DHT22;20374;49.474;10.944;2022-09-14T09:03:38;17.00;99.90
34099;DHT22;20374;49.474;10.944;2022-09-14T09:06:14;17.10;99.90
34099;DHT22;20374;49.474;10.944;2022-09-14T09:09:05;17.00;99.90
34099;DHT22;20374;49.474;10.944;2022-09-14T09:11:40;17.10;99.90
34099;DHT22;20374;49.474;10.944;2022-09-14T09:14:20;17.20;99.90
34099;DHT22;20374;49.474;10.944;2022-09-14T09:16:50;17.20;99.90
34099;DHT22;20374;49.474;10.944;2022-09-14T09:19:23;17.20;99.90
34099;DHT22;20374;49.474;10.944;2022-09-14T09:21:50;17.30;99.90
34099;DHT22;20374;49.474;10.944;2022-09-14T09:24:46;17.30;99.90
34099;DHT22;20374;49.474;10.944;2022-09-14T09:27:14;17.30;99.90
34099;DHT22;20374;49.474;10.944;2022-09-14T09:29:41;17.40;99.90
34099;DHT22;20374;49.474;10.944;2022-09-14T09:32:22;17.50;99.90
34099;DHT22;20374;49.474;10.944;2022-09-14T09:35:09;17.50;99.90
34099;DHT22;20374;49.474;10.944;2022-09-14T09:37:56;17.50;99.90
34099;DHT22;20374;49.474;10.944;2022-09-14T09:40:30;17.60;99.90
34099;DHT22;20374;49.474;10.944;2022-09-14T09:43:08;17.60;99.90
34099;DHT22;20374;49.474;10.944;2022-09-14T09:48:16;17.60;99.90
34099;DHT22;20374;49.474;10.944;2022-09-14T09:50:48;17.60;99.90
34099;DHT22;20374;49.474;10.944;2022-09-14T09:53:16;17.60;99.90
34099;DHT22;20374;49.474;10.944;2022-09-14T09:55:46;17.60;99.90
34099;DHT22;20374;49.474;10.944;2022-09-14T09:58:26;17.70;99.90
34099;DHT22;20374;49.474;10.944;2022-09-14T10:01:02;17.70;99.90
34099;DHT22;20374;49.474;10.944;2022-09-14T10:03:37;17.70;99.90
34099;DHT22;20374;49.474;10.944;2022-09-14T10:06:09;17.80;99.90
34099;DHT22;20374;49.474;10.944;2022-09-14T10:08:44;17.90;99.90
34099;DHT22;20374;49.474;10.944;2022-09-14T10:13:57;17.90;99.90
34099;DHT22;20374;49.474;10.944;2022-09-14T10:16:25;17.90;99.90
34099;DHT22;20374;49.474;10.944;2022-09-14T10:18:54;18.00;99.90
34099;DHT22;20374;49.474;10.944;2022-09-14T10:21:22;18.10;99.90
34099;DHT22;20374;49.474;10.944;2022-09-14T10:24:16;18.20;99.90
34099;DHT22;20374;49.474;10.944;2022-09-14T10:26:43;18.30;99.90
34099;DHT22;20374;49.474;10.944;2022-09-14T10:29:30;18.50;99.90
34099;DHT22;20374;49.474;10.944;2022-09-14T10:32:19;18.60;99.90
34099;DHT22;20374;49.474;10.944;2022-09-14T10:34:48;18.60;99.90
34099;DHT22;20374;49.474;10.944;2022-09-14T10:37:35;18.70;99.90
34099;DHT22;20374;49.474;10.944;2022-09-14T10:42:41;18.80;99.90
34099;DHT22;20374;49.474;10.944;2022-09-14T10:45:28;19.00;99.90
34099;DHT22;20374;49.474;10.944;2022-09-14T10:54:18;19.00;99.90
34099;DHT22;20374;49.474;10.944;2022-09-14T10:58:11;19.10;99.90
34099;DHT22;20374;49.474;10.944;2022-09-14T11:00:12;19.20;99.90
34099;DHT22;20374;49.474;10.944;2022-09-14T11:06:00;19.20;99.90
34099;DHT22;20374;49.474;10.944;2022-09-14T11:11:26;19.20;99.90
34099;DHT22;20374;49.474;10.944;2022-09-14T11:17:13;19.20;99.90
34099;DHT22;20374;49.474;10.944;2022-09-14T11:20:29;19.20;99.90
34099;DHT22;20374;49.474;10.944;2022-09-14T11:25:32;19.20;99.90
34099;DHT22;20374;49.474;10.944;2022-09-14T11:28:09;19.20;99.90
34099;DHT22;20374;49.474;10.944;2022-09-14T11:30:43;19.20;99.90
34099;DHT22;20374;49.474;10.944;2022-09-14T11:33:19;19.30;99.90
34099;DHT22;20374;49.474;10.944;2022-09-14T11:38:35;19.40;99.90
34099;DHT22;20374;49.474;10.944;2022-09-14T11:43:53;19.50;99.90
34099;DHT22;20374;49.474;10.944;2022-09-14T11:46:34;19.50;99.90
34099;DHT22;20374;49.474;10.944;2022-09-14T11:49:27;19.50;99.90
34099;DHT22;20374;49.474;10.944;2022-09-14T11:52:01;19.60;99.90
34099;DHT22;20374;49.474;10.944;2022-09-14T11:54:29;19.60;99.90
34099;DHT22;20374;49.474;10.944;2022-09-14T11:57:00;19.60;99.90
34099;DHT22;20374;49.474;10.944;2022-09-14T12:17:46;20.00;99.90
34099;DHT22;20374;49.474;10.944;2022-09-14T12:25:39;20.10;99.90
34099;DHT22;20374;49.474;10.944;2022-09-14T12:59:10;21.20;99.90
34099;DHT22;20374;49.474;10.944;2022-09-14T13:04:15;21.30;99.90
34099;DHT22;20374;49.474;10.944;2022-09-14T13:06:46;21.20;99.90
34099;DHT22;20374;49.474;10.944;2022-09-14T13:09:26;21.20;99.90
34099;DHT22;20374;49.474;10.944;2022-09-14T13:12:02;21.10;99.90
34099;DHT22;20374;49.474;10.944;2022-09-14T13:14:36;21.10;99.90
34099;DHT22;20374;49.474;10.944;2022-09-14T13:17:04;21.10;99.90
34099;DHT22;20374;49.474;10.944;2022-09-14T13:19:35;21.10;99.90
34099;DHT22;20374;49.474;10.944;2022-09-14T13:22:01;21.10;99.90
34099;DHT22;20374;49.474;10.944;2022-09-14T13:24:36;21.20;99.90
34099;DHT22;20374;49.474;10.944;2022-09-14T13:29:43;20.90;99.90
34099;DHT22;20374;49.474;10.944;2022-09-14T13:32:14;20.90;99.90
34099;DHT22;20374;49.474;10.944;2022-09-14T13:34:42;20.90;99.90
34099;DHT22;20374;49.474;10.944;2022-09-14T13:37:12;20.80;99.90
34099;DHT22;20374;49.474;10.944;2022-09-14T13:39:39;20.80;99.90
34099;DHT22;20374;49.474;10.944;2022-09-14T13:42:08;20.80;99.90
34099;DHT22;20374;49.474;10.944;2022-09-14T13:44:42;20.70;99.90
34099;DHT22;20374;49.474;10.944;2022-09-14T13:47:20;20.70;99.90
34099;DHT22;20374;49.474;10.944;2022-09-14T13:49:48;20.80;99.90
34099;DHT22;20374;49.474;10.944;2022-09-14T13:52:26;20.90;99.90
34099;DHT22;20374;49.474;10.944;2022-09-14T14:03:41;21.00;99.90
34099;DHT22;20374;49.474;10.944;2022-09-14T14:06:28;20.90;99.90
34099;DHT22;20374;49.474;10.944;2022-09-14T14:09:07;20.90;99.90
34099;DHT22;20374;49.474;10.944;2022-09-14T14:11:41;20.80;99.90
34099;DHT22;20374;49.474;10.944;2022-09-14T14:19:47;20.60;99.90
34099;DHT22;20374;49.474;10.944;2022-09-14T14:24:40;20.50;99.90
34099;DHT22;20374;49.474;10.944;2022-09-14T14:27:38;20.50;99.90
34099;DHT22;20374;49.474;10.944;2022-09-14T14:30:16;20.40;99.90
34099;DHT22;20374;49.474;10.944;2022-09-14T14:32:42;20.40;99.90
34099;DHT22;20374;49.474;10.944;2022-09-14T14:35:18;20.10;99.90
34099;DHT22;20374;49.474;10.944;2022-09-14T14:37:47;19.70;99.90
34099;DHT22;20374;49.474;10.944;2022-09-14T14:40:14;19.40;99.90
34099;DHT22;20374;49.474;10.944;2022-09-14T14:42:41;19.30;99.90
34099;DHT22;20374;49.474;10.944;2022-09-14T14:45:21;19.20;99.90
34099;DHT22;20374;49.474;10.944;2022-09-14T14:47:48;19.10;99.90
34099;DHT22;20374;49.474;10.944;2022-09-14T14:50:28;18.90;99.90
34099;DHT22;20374;49.474;10.944;2022-09-14T14:52:54;18.70;99.90
34099;DHT22;20374;49.474;10.944;2022-09-14T14:55:22;18.60;99.90
34099;DHT22;20374;49.474;10.944;2022-09-14T14:57:49;18.50;99.90
34099;DHT22;20374;49.474;10.944;2022-09-14T15:00:22;18.40;99.90
34099;DHT22;20374;49.474;10.944;2022-09-14T15:02:49;18.40;99.90
34099;DHT22;20374;49.474;10.944;2022-09-14T15:05:15;18.30;99.90
34099;DHT22;20374;49.474;10.944;2022-09-14T15:07:42;18.30;99.90
34099;DHT22;20374;49.474;10.944;2022-09-14T15:10:15;18.30;99.90
34099;DHT22;20374;49.474;10.944;2022-09-14T15:12:41;18.30;99.90
34099;DHT22;20374;49.474;10.944;2022-09-14T15:15:15;18.30;99.90
34099;DHT22;20374;49.474;10.944;2022-09-14T15:17:42;18.30;99.90
34099;DHT22;20374;49.474;10.944;2022-09-14T15:20:08;18.30;99.90
34099;DHT22;20374;49.474;10.944;2022-09-14T15:22:35;18.20;99.90
34099;DHT22;20374;49.474;10.944;2022-09-14T15:25:02;18.20;99.90
34099;DHT22;20374;49.474;10.944;2022-09-14T15:27:28;18.20;99.90
34099;DHT22;20374;49.474;10.944;2022-09-14T15:29:54;18.20;99.90
34099;DHT22;20374;49.474;10.944;2022-09-14T15:32:20;18.20;99.90
34099;DHT22;20374;49.474;10.944;2022-09-14T15:34:46;18.10;99.90
34099;DHT22;20374;49.474;10.944;2022-09-14T15:37:12;17.80;99.90
34099;DHT22;20374;49.474;10.944;2022-09-14T15:39:38;18.00;99.90
34099;DHT22;20374;49.474;10.944;2022-09-14T15:42:04;17.90;99.90
34099;DHT22;20374;49.474;10.944;2022-09-14T15:44:30;17.90;99.90
34099;DHT22;20374;49.474;10.944;2022-09-14T15:47:00;17.90;99.90
34099;DHT22;20374;49.474;10.944;2022-09-14T15:49:26;17.90;99.90
34099;DHT22;20374;49.474;10.944;2022-09-14T15:51:53;17.80;99.90
34099;DHT22;20374;49.474;10.944;2022-09-14T15:54:21;17.90;99.90
34099;DHT22;20374;49.474;10.944;2022-09-14T15:56:52;17.80;99.90
34099;DHT22;20374;49.474;10.944;2022-09-14T15:59:19;17.80;99.90
34099;DHT22;20374;49.474;10.944;2022-09-14T16:01:46;17.80;99.90
34099;DHT22;20374;49.474;10.944;2022-09-14T16:04:12;17.80;99.90
34099;DHT22;20374;49.474;10.944;2022-09-14T16:06:39;17.80;99.90
34099;DHT22;20374;49.474;10.944;2022-09-14T16:09:07;17.80;99.90
34099;DHT22;20374;49.474;10.944;2022-09-14T16:11:34;17.80;99.90
34099;DHT22;20374;49.474;10.944;2022-09-14T16:14:00;17.80;99.90
34099;DHT22;20374;49.474;10.944;2022-09-14T16:16:26;17.70;99.90
34099;DHT22;20374;49.474;10.944;2022-09-14T16:18:52;17.70;99.90
34099;DHT22;20374;49.474;10.944;2022-09-14T16:21:26;17.60;99.90
34099;DHT22;20374;49.474;10.944;2022-09-14T16:23:58;17.60;99.90
34099;DHT22;20374;49.474;10.944;2022-09-14T16:28:51;17.50;99.90
34099;DHT22;20374;49.474;10.944;2022-09-14T16:31:20;17.50;99.90
34099;DHT22;20374;49.474;10.944;2022-09-14T16:33:48;17.40;99.90
34099;DHT22;20374;49.474;10.944;2022-09-14T16:36:21;17.40;99.90
34099;DHT22;20374;49.474;10.944;2022-09-14T16:38:47;17.40;99.90
34099;DHT22;20374;49.474;10.944;2022-09-14T16:41:14;17.40;99.90
34099;DHT22;20374;49.474;10.944;2022-09-14T16:43:39;17.50;99.90
34099;DHT22;20374;49.474;10.944;2022-09-14T16:46:08;17.50;99.90
34099;DHT22;20374;49.474;10.944;2022-09-14T16:48:45;17.50;99.90
34099;DHT22;20374;49.474;10.944;2022-09-14T16:51:13;17.50;99.90
34099;DHT22;20374;49.474;10.944;2022-09-14T16:53:41;17.50;99.90
34099;DHT22;20374;49.474;10.944;2022-09-14T16:56:12;17.50;99.90
34099;DHT22;20374;49.474;10.944;2022-09-14T16:58:40;17.50;99.90
34099;DHT22;20374;49.474;10.944;2022-09-14T17:01:14;17.50;99.90
34099;DHT22;20374;49.474;10.944;2022-09-14T17:03:41;17.50;99.90
34099;DHT22;20374;49.474;10.944;2022-09-14T17:06:20;17.50;99.90
34099;DHT22;20374;49.474;10.944;2022-09-14T17:08:47;17.50;99.90
34099;DHT22;20374;49.474;10.944;2022-09-14T17:11:14;17.50;99.90
34099;DHT22;20374;49.474;10.944;2022-09-14T17:13:44;17.40;99.90
34099;DHT22;20374;49.474;10.944;2022-09-14T17:16:19;17.40;99.90
34099;DHT22;20374;49.474;10.944;2022-09-14T17:18:47;17.40;99.90
34099;DHT22;20374;49.474;10.944;2022-09-14T17:21:16;17.40;99.90
34099;DHT22;20374;49.474;10.944;2022-09-14T17:23:42;17.40;99.90
34099;DHT22;20374;49.474;10.944;2022-09-14T17:26:10;17.30;99.90
34099;DHT22;20374;49.474;10.944;2022-09-14T17:28:37;17.30;99.90
34099;DHT22;20374;49.474;10.944;2022-09-14T17:31:05;17.30;99.90
34099;DHT22;20374;49.474;10.944;2022-09-14T17:33:31;17.30;99.90
34099;DHT22;20374;49.474;10.944;2022-09-14T17:36:00;17.30;99.90
34099;DHT22;20374;49.474;10.944;2022-09-14T17:38:30;17.30;99.90
34099;DHT22;20374;49.474;10.944;2022-09-14T17:41:05;17.30;99.90
34099;DHT22;20374;49.474;10.944;2022-09-14T17:43:32;17.30;99.90
34099;DHT22;20374;49.474;10.944;2022-09-14T17:45:58;17.20;99.90
34099;DHT22;20374;49.474;10.944;2022-09-14T17:48:25;17.20;99.90
34099;DHT22;20374;49.474;10.944;2022-09-14T17:50:53;17.20;99.90
34099;DHT22;20374;49.474;10.944;2022-09-14T17:53:20;17.20;99.90
34099;DHT22;20374;49.474;10.944;2022-09-14T17:55:46;17.10;99.90